sensor_id;sensor_type;location;lat;lon;timestamp;P1;durP1;ratioP1;P2;durP2;ratioP2
63688;SDS011;54895;40.928;14.480;2022-07-06T00:01:50;12.63;;;3.60;;
63688;SDS011;54895;40.928;14.480;2022-07-06T00:04:17;11.05;;;3.25;;
63688;SDS011;54895;40.928;14.480;2022-07-06T00:06:44;11.18;;;3.40;;
63688;SDS011;54895;40.928;14.480;2022-07-06T00:09:11;16.30;;;3.88;;
63688;SDS011;54895;40.928;14.480;2022-07-06T00:11:38;14.68;;;3.78;;
63688;SDS011;54895;40.928;14.480;2022-07-06T00:14:05;14.90;;;3.58;;
63688;SDS011;54895;40.928;14.480;2022-07-06T00:16:32;14.10;;;3.72;;
63688;SDS011;54895;40.928;14.480;2022-07-06T00:18:59;17.02;;;3.80;;
63688;SDS011;54895;40.928;14.480;2022-07-06T00:21:25;17.27;;;3.78;;
63688;SDS011;54895;40.928;14.480;2022-07-06T00:23:52;15.18;;;3.83;;
63688;SDS011;54895;40.928;14.480;2022-07-06T00:26:19;16.85;;;3.90;;
63688;SDS011;54895;40.928;14.480;2022-07-06T00:28:46;13.57;;;3.75;;
63688;SDS011;54895;40.928;14.480;2022-07-06T00:31:12;12.13;;;3.78;;
63688;SDS011;54895;40.928;14.480;2022-07-06T00:33:39;12.07;;;3.47;;
63688;SDS011;54895;40.928;14.480;2022-07-06T00:36:05;14.20;;;3.83;;
63688;SDS011;54895;40.928;14.480;2022-07-06T00:38:32;17.75;;;3.72;;
63688;SDS011;54895;40.928;14.480;2022-07-06T00:40:59;12.23;;;3.42;;
63688;SDS011;54895;40.928;14.480;2022-07-06T00:43:25;12.10;;;3.70;;
63688;SDS011;54895;40.928;14.480;2022-07-06T00:45:52;8.77;;;2.88;;
63688;SDS011;54895;40.928;14.480;2022-07-06T00:48:19;11.82;;;3.08;;
63688;SDS011;54895;40.928;14.480;2022-07-06T00:50:45;10.40;;;3.10;;
63688;SDS011;54895;40.928;14.480;2022-07-06T00:53:12;11.63;;;3.25;;
63688;SDS011;54895;40.928;14.480;2022-07-06T00:55:39;9.20;;;3.33;;
63688;SDS011;54895;40.928;14.480;2022-07-06T00:58:07;13.55;;;3.35;;
63688;SDS011;54895;40.928;14.480;2022-07-06T01:00:34;12.93;;;3.50;;
63688;SDS011;54895;40.928;14.480;2022-07-06T01:03:01;11.90;;;3.03;;
63688;SDS011;54895;40.928;14.480;2022-07-06T01:05:28;8.65;;;3.35;;
63688;SDS011;54895;40.928;14.480;2022-07-06T01:07:55;9.10;;;3.10;;
63688;SDS011;54895;40.928;14.480;2022-07-06T01:10:22;9.25;;;3.00;;
63688;SDS011;54895;40.928;14.480;2022-07-06T01:12:49;8.88;;;2.65;;
63688;SDS011;54895;40.928;14.480;2022-07-06T01:15:23;10.93;;;2.78;;
63688;SDS011;54895;40.928;14.480;2022-07-06T01:17:52;8.68;;;2.50;;
63688;SDS011;54895;40.928;14.480;2022-07-06T01:20:24;15.13;;;3.50;;
63688;SDS011;54895;40.928;14.480;2022-07-06T01:22:53;11.68;;;3.83;;
63688;SDS011;54895;40.928;14.480;2022-07-06T01:25:20;13.30;;;4.60;;
63688;SDS011;54895;40.928;14.480;2022-07-06T01:27:47;10.00;;;3.13;;
63688;SDS011;54895;40.928;14.480;2022-07-06T01:30:16;8.90;;;3.17;;
63688;SDS011;54895;40.928;14.480;2022-07-06T01:32:44;14.98;;;3.70;;
63688;SDS011;54895;40.928;14.480;2022-07-06T01:35:12;11.90;;;3.88;;
63688;SDS011;54895;40.928;14.480;2022-07-06T01:37:41;9.73;;;3.80;;
63688;SDS011;54895;40.928;14.480;2022-07-06T01:40:09;16.48;;;3.97;;
63688;SDS011;54895;40.928;14.480;2022-07-06T01:42:36;14.77;;;3.65;;
63688;SDS011;54895;40.928;14.480;2022-07-06T01:45:04;16.17;;;3.58;;
63688;SDS011;54895;40.928;14.480;2022-07-06T01:47:31;7.35;;;3.03;;
63688;SDS011;54895;40.928;14.480;2022-07-06T01:50:05;9.40;;;2.90;;
63688;SDS011;54895;40.928;14.480;2022-07-06T01:52:35;15.02;;;3.40;;
63688;SDS011;54895;40.928;14.480;2022-07-06T01:55:03;7.68;;;2.70;;
63688;SDS011;54895;40.928;14.480;2022-07-06T01:57:32;8.95;;;2.97;;
63688;SDS011;54895;40.928;14.480;2022-07-06T01:59:59;13.52;;;3.22;;
63688;SDS011;54895;40.928;14.480;2022-07-06T02:02:26;11.23;;;2.85;;
63688;SDS011;54895;40.928;14.480;2022-07-06T02:04:53;14.68;;;3.20;;
63688;SDS011;54895;40.928;14.480;2022-07-06T02:07:19;9.40;;;2.75;;
63688;SDS011;54895;40.928;14.480;2022-07-06T02:09:46;10.10;;;3.08;;
63688;SDS011;54895;40.928;14.480;2022-07-06T02:12:13;8.07;;;2.95;;
63688;SDS011;54895;40.928;14.480;2022-07-06T02:14:39;12.98;;;2.97;;
63688;SDS011;54895;40.928;14.480;2022-07-06T02:17:06;12.85;;;3.33;;
63688;SDS011;54895;40.928;14.480;2022-07-06T02:19:34;6.90;;;2.80;;
63688;SDS011;54895;40.928;14.480;2022-07-06T02:22:01;15.48;;;3.30;;
63688;SDS011;54895;40.928;14.480;2022-07-06T02:24:29;9.63;;;3.00;;
63688;SDS011;54895;40.928;14.480;2022-07-06T02:26:56;6.38;;;2.67;;
63688;SDS011;54895;40.928;14.480;2022-07-06T02:29:23;12.05;;;3.55;;
63688;SDS011;54895;40.928;14.480;2022-07-06T02:31:50;14.45;;;3.35;;
63688;SDS011;54895;40.928;14.480;2022-07-06T02:34:16;8.43;;;3.28;;
63688;SDS011;54895;40.928;14.480;2022-07-06T02:36:43;13.48;;;3.13;;
63688;SDS011;54895;40.928;14.480;2022-07-06T02:39:09;9.05;;;3.35;;
63688;SDS011;54895;40.928;14.480;2022-07-06T02:41:36;14.25;;;3.42;;
63688;SDS011;54895;40.928;14.480;2022-07-06T02:44:03;12.65;;;3.50;;
63688;SDS011;54895;40.928;14.480;2022-07-06T02:46:31;10.57;;;3.65;;
63688;SDS011;54895;40.928;14.480;2022-07-06T02:48:57;11.50;;;3.67;;
63688;SDS011;54895;40.928;14.480;2022-07-06T02:51:24;8.32;;;3.60;;
63688;SDS011;54895;40.928;14.480;2022-07-06T02:53:51;7.97;;;3.00;;
63688;SDS011;54895;40.928;14.480;2022-07-06T02:56:18;8.85;;;2.78;;
63688;SDS011;54895;40.928;14.480;2022-07-06T02:58:44;9.98;;;3.10;;
63688;SDS011;54895;40.928;14.480;2022-07-06T03:01:12;12.57;;;3.92;;
63688;SDS011;54895;40.928;14.480;2022-07-06T03:03:39;13.77;;;3.30;;
63688;SDS011;54895;40.928;14.480;2022-07-06T03:06:06;12.95;;;3.50;;
63688;SDS011;54895;40.928;14.480;2022-07-06T03:08:33;14.25;;;3.30;;
63688;SDS011;54895;40.928;14.480;2022-07-06T03:11:01;12.40;;;3.58;;
63688;SDS011;54895;40.928;14.480;2022-07-06T03:13:28;14.05;;;3.25;;
63688;SDS011;54895;40.928;14.480;2022-07-06T03:15:55;9.35;;;3.30;;
63688;SDS011;54895;40.928;14.480;2022-07-06T03:18:23;12.93;;;3.90;;
63688;SDS011;54895;40.928;14.480;2022-07-06T03:20:50;13.93;;;3.55;;
63688;SDS011;54895;40.928;14.480;2022-07-06T03:23:18;12.93;;;4.57;;
63688;SDS011;54895;40.928;14.480;2022-07-06T03:25:45;10.38;;;3.30;;
63688;SDS011;54895;40.928;14.480;2022-07-06T03:28:12;9.80;;;3.95;;
63688;SDS011;54895;40.928;14.480;2022-07-06T03:30:38;11.75;;;4.00;;
63688;SDS011;54895;40.928;14.480;2022-07-06T03:33:05;13.23;;;3.90;;
63688;SDS011;54895;40.928;14.480;2022-07-06T03:35:32;13.68;;;3.70;;
63688;SDS011;54895;40.928;14.480;2022-07-06T03:38:01;20.48;;;4.05;;
63688;SDS011;54895;40.928;14.480;2022-07-06T03:40:30;11.95;;;4.40;;
63688;SDS011;54895;40.928;14.480;2022-07-06T03:42:57;16.35;;;3.90;;
63688;SDS011;54895;40.928;14.480;2022-07-06T03:45:25;16.55;;;3.53;;
63688;SDS011;54895;40.928;14.480;2022-07-06T03:47:52;18.23;;;3.47;;
63688;SDS011;54895;40.928;14.480;2022-07-06T03:50:19;12.35;;;3.28;;
63688;SDS011;54895;40.928;14.480;2022-07-06T03:52:47;14.32;;;3.25;;
63688;SDS011;54895;40.928;14.480;2022-07-06T03:55:14;13.43;;;3.78;;
63688;SDS011;54895;40.928;14.480;2022-07-06T03:57:47;10.77;;;3.38;;
63688;SDS011;54895;40.928;14.480;2022-07-06T04:00:17;8.50;;;2.60;;
63688;SDS011;54895;40.928;14.480;2022-07-06T04:02:52;9.80;;;3.20;;
63688;SDS011;54895;40.928;14.480;2022-07-06T04:05:23;14.70;;;4.55;;
63688;SDS011;54895;40.928;14.480;2022-07-06T04:07:52;14.02;;;4.10;;
63688;SDS011;54895;40.928;14.480;2022-07-06T04:10:21;16.60;;;4.60;;
63688;SDS011;54895;40.928;14.480;2022-07-06T04:12:48;12.18;;;4.53;;
63688;SDS011;54895;40.928;14.480;2022-07-06T04:15:17;18.73;;;4.00;;
63688;SDS011;54895;40.928;14.480;2022-07-06T04:17:44;16.45;;;4.50;;
63688;SDS011;54895;40.928;14.480;2022-07-06T04:20:27;19.83;;;5.07;;
63688;SDS011;54895;40.928;14.480;2022-07-06T04:22:55;26.02;;;7.07;;
63688;SDS011;54895;40.928;14.480;2022-07-06T04:25:24;16.83;;;5.28;;
63688;SDS011;54895;40.928;14.480;2022-07-06T04:27:51;13.75;;;4.57;;
63688;SDS011;54895;40.928;14.480;2022-07-06T04:30:18;12.07;;;4.72;;
63688;SDS011;54895;40.928;14.480;2022-07-06T04:32:46;15.25;;;3.88;;
63688;SDS011;54895;40.928;14.480;2022-07-06T04:35:14;19.88;;;4.10;;
63688;SDS011;54895;40.928;14.480;2022-07-06T04:37:42;15.10;;;3.85;;
63688;SDS011;54895;40.928;14.480;2022-07-06T04:40:13;14.35;;;3.58;;
63688;SDS011;54895;40.928;14.480;2022-07-06T04:42:40;9.77;;;3.05;;
63688;SDS011;54895;40.928;14.480;2022-07-06T04:45:08;9.45;;;3.20;;
63688;SDS011;54895;40.928;14.480;2022-07-06T04:47:35;12.30;;;3.42;;
63688;SDS011;54895;40.928;14.480;2022-07-06T04:50:03;13.23;;;3.35;;
63688;SDS011;54895;40.928;14.480;2022-07-06T04:52:31;17.60;;;5.13;;
63688;SDS011;54895;40.928;14.480;2022-07-06T04:54:58;17.67;;;5.10;;
63688;SDS011;54895;40.928;14.480;2022-07-06T04:57:25;25.00;;;4.97;;
63688;SDS011;54895;40.928;14.480;2022-07-06T04:59:53;27.67;;;5.40;;
63688;SDS011;54895;40.928;14.480;2022-07-06T05:02:20;32.30;;;5.78;;
63688;SDS011;54895;40.928;14.480;2022-07-06T05:04:47;18.75;;;6.40;;
63688;SDS011;54895;40.928;14.480;2022-07-06T05:07:14;24.20;;;6.47;;
63688;SDS011;54895;40.928;14.480;2022-07-06T05:09:41;28.77;;;5.88;;
63688;SDS011;54895;40.928;14.480;2022-07-06T05:12:08;23.35;;;5.10;;
63688;SDS011;54895;40.928;14.480;2022-07-06T05:14:35;16.88;;;4.57;;
63688;SDS011;54895;40.928;14.480;2022-07-06T05:17:04;19.25;;;5.78;;
63688;SDS011;54895;40.928;14.480;2022-07-06T05:19:31;19.60;;;5.88;;
63688;SDS011;54895;40.928;14.480;2022-07-06T05:21:57;17.92;;;4.93;;
63688;SDS011;54895;40.928;14.480;2022-07-06T05:24:24;22.42;;;4.25;;
63688;SDS011;54895;40.928;14.480;2022-07-06T05:26:51;19.65;;;4.38;;
63688;SDS011;54895;40.928;14.480;2022-07-06T05:29:18;12.80;;;3.47;;
63688;SDS011;54895;40.928;14.480;2022-07-06T05:31:46;13.60;;;3.90;;
63688;SDS011;54895;40.928;14.480;2022-07-06T05:34:12;15.75;;;3.28;;
63688;SDS011;54895;40.928;14.480;2022-07-06T05:36:40;18.35;;;4.40;;
63688;SDS011;54895;40.928;14.480;2022-07-06T05:39:06;19.63;;;4.43;;
63688;SDS011;54895;40.928;14.480;2022-07-06T05:41:33;16.98;;;4.90;;
63688;SDS011;54895;40.928;14.480;2022-07-06T05:44:01;15.95;;;4.70;;
63688;SDS011;54895;40.928;14.480;2022-07-06T05:46:28;21.08;;;4.80;;
63688;SDS011;54895;40.928;14.480;2022-07-06T05:48:55;16.50;;;4.55;;
63688;SDS011;54895;40.928;14.480;2022-07-06T05:51:45;18.38;;;5.20;;
63688;SDS011;54895;40.928;14.480;2022-07-06T05:54:12;25.33;;;5.88;;
63688;SDS011;54895;40.928;14.480;2022-07-06T05:56:38;26.73;;;6.32;;
63688;SDS011;54895;40.928;14.480;2022-07-06T05:59:05;25.42;;;5.32;;
63688;SDS011;54895;40.928;14.480;2022-07-06T06:01:31;18.10;;;4.53;;
63688;SDS011;54895;40.928;14.480;2022-07-06T06:07:34;26.33;;;4.47;;
63688;SDS011;54895;40.928;14.480;2022-07-06T06:10:09;24.75;;;4.65;;
63688;SDS011;54895;40.928;14.480;2022-07-06T06:12:38;24.85;;;4.75;;
63688;SDS011;54895;40.928;14.480;2022-07-06T06:15:06;20.30;;;4.38;;
63688;SDS011;54895;40.928;14.480;2022-07-06T06:17:34;21.27;;;4.47;;
63688;SDS011;54895;40.928;14.480;2022-07-06T06:20:03;26.20;;;5.00;;
63688;SDS011;54895;40.928;14.480;2022-07-06T06:25:13;11.63;;;3.20;;
63688;SDS011;54895;40.928;14.480;2022-07-06T06:27:44;18.50;;;3.33;;
63688;SDS011;54895;40.928;14.480;2022-07-06T06:30:12;18.30;;;3.85;;
63688;SDS011;54895;40.928;14.480;2022-07-06T06:32:39;16.50;;;3.70;;
63688;SDS011;54895;40.928;14.480;2022-07-06T06:35:06;12.43;;;3.58;;
63688;SDS011;54895;40.928;14.480;2022-07-06T06:37:33;16.73;;;3.10;;
63688;SDS011;54895;40.928;14.480;2022-07-06T06:40:03;14.23;;;3.13;;
63688;SDS011;54895;40.928;14.480;2022-07-06T06:42:31;19.38;;;3.35;;
63688;SDS011;54895;40.928;14.480;2022-07-06T06:44:59;17.92;;;3.45;;
63688;SDS011;54895;40.928;14.480;2022-07-06T06:47:26;15.75;;;3.65;;
63688;SDS011;54895;40.928;14.480;2022-07-06T06:49:52;16.73;;;3.80;;
63688;SDS011;54895;40.928;14.480;2022-07-06T06:52:19;15.48;;;3.33;;
63688;SDS011;54895;40.928;14.480;2022-07-06T06:54:45;12.98;;;2.80;;
63688;SDS011;54895;40.928;14.480;2022-07-06T06:57:12;15.93;;;2.78;;
63688;SDS011;54895;40.928;14.480;2022-07-06T06:59:38;16.08;;;3.30;;
63688;SDS011;54895;40.928;14.480;2022-07-06T07:02:05;13.38;;;3.00;;
63688;SDS011;54895;40.928;14.480;2022-07-06T07:04:32;15.10;;;3.03;;
63688;SDS011;54895;40.928;14.480;2022-07-06T07:06:58;17.15;;;3.17;;
63688;SDS011;54895;40.928;14.480;2022-07-06T07:09:25;15.85;;;2.53;;
63688;SDS011;54895;40.928;14.480;2022-07-06T07:11:52;16.63;;;2.70;;
63688;SDS011;54895;40.928;14.480;2022-07-06T07:14:18;13.65;;;2.75;;
63688;SDS011;54895;40.928;14.480;2022-07-06T07:16:45;13.10;;;2.88;;
63688;SDS011;54895;40.928;14.480;2022-07-06T07:19:11;12.38;;;2.20;;
63688;SDS011;54895;40.928;14.480;2022-07-06T07:21:38;78.70;;;7.40;;
63688;SDS011;54895;40.928;14.480;2022-07-06T07:24:04;15.65;;;2.88;;
63688;SDS011;54895;40.928;14.480;2022-07-06T07:26:31;11.35;;;2.00;;
63688;SDS011;54895;40.928;14.480;2022-07-06T07:28:58;11.43;;;2.38;;
63688;SDS011;54895;40.928;14.480;2022-07-06T07:31:24;11.90;;;2.58;;
63688;SDS011;54895;40.928;14.480;2022-07-06T07:33:51;13.35;;;2.60;;
63688;SDS011;54895;40.928;14.480;2022-07-06T07:36:18;13.05;;;2.35;;
63688;SDS011;54895;40.928;14.480;2022-07-06T07:38:44;9.00;;;2.42;;
63688;SDS011;54895;40.928;14.480;2022-07-06T07:41:11;16.65;;;3.03;;
63688;SDS011;54895;40.928;14.480;2022-07-06T07:43:40;18.77;;;2.78;;
63688;SDS011;54895;40.928;14.480;2022-07-06T07:46:06;15.70;;;2.47;;
63688;SDS011;54895;40.928;14.480;2022-07-06T07:48:33;12.00;;;2.35;;
63688;SDS011;54895;40.928;14.480;2022-07-06T07:51:00;11.70;;;2.40;;
63688;SDS011;54895;40.928;14.480;2022-07-06T07:53:27;13.32;;;2.80;;
63688;SDS011;54895;40.928;14.480;2022-07-06T07:55:53;14.93;;;3.25;;
63688;SDS011;54895;40.928;14.480;2022-07-06T07:58:20;13.02;;;2.60;;
63688;SDS011;54895;40.928;14.480;2022-07-06T08:00:46;9.98;;;2.42;;
63688;SDS011;54895;40.928;14.480;2022-07-06T08:03:13;12.00;;;2.97;;
63688;SDS011;54895;40.928;14.480;2022-07-06T08:05:39;12.02;;;2.72;;
63688;SDS011;54895;40.928;14.480;2022-07-06T08:08:06;11.77;;;2.78;;
63688;SDS011;54895;40.928;14.480;2022-07-06T08:10:33;12.35;;;2.28;;
63688;SDS011;54895;40.928;14.480;2022-07-06T08:12:59;9.85;;;2.38;;
63688;SDS011;54895;40.928;14.480;2022-07-06T08:15:26;10.85;;;2.33;;
63688;SDS011;54895;40.928;14.480;2022-07-06T08:17:52;10.70;;;2.63;;
63688;SDS011;54895;40.928;14.480;2022-07-06T08:20:19;11.43;;;2.50;;
63688;SDS011;54895;40.928;14.480;2022-07-06T08:22:45;12.23;;;2.40;;
63688;SDS011;54895;40.928;14.480;2022-07-06T08:25:12;12.00;;;2.85;;
63688;SDS011;54895;40.928;14.480;2022-07-06T08:27:38;8.57;;;2.45;;
63688;SDS011;54895;40.928;14.480;2022-07-06T08:30:07;10.52;;;2.67;;
63688;SDS011;54895;40.928;14.480;2022-07-06T08:32:36;15.50;;;2.85;;
63688;SDS011;54895;40.928;14.480;2022-07-06T08:35:04;12.40;;;2.83;;
63688;SDS011;54895;40.928;14.480;2022-07-06T08:37:31;11.50;;;2.70;;
63688;SDS011;54895;40.928;14.480;2022-07-06T08:39:58;8.98;;;2.83;;
63688;SDS011;54895;40.928;14.480;2022-07-06T08:42:26;16.00;;;3.15;;
63688;SDS011;54895;40.928;14.480;2022-07-06T08:44:58;12.50;;;2.83;;
63688;SDS011;54895;40.928;14.480;2022-07-06T08:47:26;16.27;;;3.15;;
63688;SDS011;54895;40.928;14.480;2022-07-06T08:49:54;19.98;;;3.88;;
63688;SDS011;54895;40.928;14.480;2022-07-06T08:52:22;19.42;;;3.20;;
63688;SDS011;54895;40.928;14.480;2022-07-06T08:54:49;14.80;;;3.63;;
63688;SDS011;54895;40.928;14.480;2022-07-06T08:57:16;14.05;;;3.80;;
63688;SDS011;54895;40.928;14.480;2022-07-06T08:59:43;16.40;;;3.67;;
63688;SDS011;54895;40.928;14.480;2022-07-06T09:02:10;19.98;;;3.38;;
63688;SDS011;54895;40.928;14.480;2022-07-06T09:04:37;18.52;;;3.17;;
63688;SDS011;54895;40.928;14.480;2022-07-06T09:07:04;18.13;;;3.45;;
63688;SDS011;54895;40.928;14.480;2022-07-06T09:09:31;15.80;;;3.22;;
63688;SDS011;54895;40.928;14.480;2022-07-06T09:11:59;15.60;;;3.83;;
63688;SDS011;54895;40.928;14.480;2022-07-06T09:14:26;9.98;;;3.03;;
63688;SDS011;54895;40.928;14.480;2022-07-06T09:17:04;11.27;;;3.08;;
63688;SDS011;54895;40.928;14.480;2022-07-06T09:19:32;22.05;;;3.75;;
63688;SDS011;54895;40.928;14.480;2022-07-06T09:22:00;25.75;;;4.13;;
63688;SDS011;54895;40.928;14.480;2022-07-06T09:24:28;11.63;;;2.53;;
63688;SDS011;54895;40.928;14.480;2022-07-06T09:26:55;13.38;;;2.60;;
63688;SDS011;54895;40.928;14.480;2022-07-06T09:29:27;17.67;;;3.17;;
63688;SDS011;54895;40.928;14.480;2022-07-06T09:31:59;17.08;;;2.95;;
63688;SDS011;54895;40.928;14.480;2022-07-06T09:34:45;11.77;;;2.80;;
63688;SDS011;54895;40.928;14.480;2022-07-06T09:37:13;16.33;;;3.20;;
63688;SDS011;54895;40.928;14.480;2022-07-06T09:39:40;11.90;;;3.20;;
63688;SDS011;54895;40.928;14.480;2022-07-06T09:42:08;11.35;;;3.00;;
63688;SDS011;54895;40.928;14.480;2022-07-06T09:44:36;14.02;;;3.80;;
63688;SDS011;54895;40.928;14.480;2022-07-06T09:47:05;10.63;;;3.50;;
63688;SDS011;54895;40.928;14.480;2022-07-06T09:49:35;15.50;;;3.30;;
63688;SDS011;54895;40.928;14.480;2022-07-06T09:52:03;13.75;;;3.80;;
63688;SDS011;54895;40.928;14.480;2022-07-06T09:54:34;12.43;;;3.53;;
63688;SDS011;54895;40.928;14.480;2022-07-06T09:57:01;14.93;;;3.90;;
63688;SDS011;54895;40.928;14.480;2022-07-06T09:59:29;19.40;;;3.78;;
63688;SDS011;54895;40.928;14.480;2022-07-06T10:01:58;13.25;;;3.83;;
63688;SDS011;54895;40.928;14.480;2022-07-06T10:04:27;18.60;;;3.78;;
63688;SDS011;54895;40.928;14.480;2022-07-06T10:06:55;13.45;;;3.47;;
63688;SDS011;54895;40.928;14.480;2022-07-06T10:09:24;15.75;;;3.65;;
63688;SDS011;54895;40.928;14.480;2022-07-06T10:12:00;15.32;;;3.88;;
63688;SDS011;54895;40.928;14.480;2022-07-06T10:27:06;16.52;;;4.63;;
63688;SDS011;54895;40.928;14.480;2022-07-06T10:29:34;17.50;;;4.30;;
63688;SDS011;54895;40.928;14.480;2022-07-06T10:32:00;18.98;;;4.93;;
63688;SDS011;54895;40.928;14.480;2022-07-06T10:34:28;15.88;;;4.47;;
63688;SDS011;54895;40.928;14.480;2022-07-06T10:36:55;24.98;;;5.70;;
63688;SDS011;54895;40.928;14.480;2022-07-06T10:39:37;27.55;;;6.22;;
63688;SDS011;54895;40.928;14.480;2022-07-06T10:45:13;20.33;;;5.78;;
63688;SDS011;54895;40.928;14.480;2022-07-06T10:47:41;17.80;;;5.47;;
63688;SDS011;54895;40.928;14.480;2022-07-06T10:50:09;18.77;;;5.43;;
63688;SDS011;54895;40.928;14.480;2022-07-06T10:52:52;16.65;;;5.63;;
63688;SDS011;54895;40.928;14.480;2022-07-06T10:55:32;17.27;;;5.45;;
63688;SDS011;54895;40.928;14.480;2022-07-06T10:58:01;19.27;;;5.63;;
63688;SDS011;54895;40.928;14.480;2022-07-06T11:08:51;20.42;;;5.70;;
63688;SDS011;54895;40.928;14.480;2022-07-06T11:14:06;24.08;;;5.15;;
63688;SDS011;54895;40.928;14.480;2022-07-06T11:16:34;23.33;;;5.28;;
63688;SDS011;54895;40.928;14.480;2022-07-06T11:24:16;14.50;;;5.65;;
63688;SDS011;54895;40.928;14.480;2022-07-06T11:29:12;20.60;;;5.43;;
63688;SDS011;54895;40.928;14.480;2022-07-06T11:31:41;15.88;;;5.63;;
63688;SDS011;54895;40.928;14.480;2022-07-06T11:34:10;16.70;;;5.30;;
63688;SDS011;54895;40.928;14.480;2022-07-06T11:36:39;19.77;;;5.78;;
63688;SDS011;54895;40.928;14.480;2022-07-06T11:39:07;19.85;;;5.55;;
63688;SDS011;54895;40.928;14.480;2022-07-06T11:41:33;17.27;;;5.07;;
63688;SDS011;54895;40.928;14.480;2022-07-06T11:44:01;10.90;;;4.38;;
63688;SDS011;54895;40.928;14.480;2022-07-06T11:46:28;14.85;;;4.63;;
63688;SDS011;54895;40.928;14.480;2022-07-06T11:48:59;18.88;;;4.60;;
63688;SDS011;54895;40.928;14.480;2022-07-06T11:51:28;15.68;;;4.40;;
63688;SDS011;54895;40.928;14.480;2022-07-06T11:53:57;14.70;;;4.15;;
63688;SDS011;54895;40.928;14.480;2022-07-06T11:56:28;14.57;;;2.90;;
63688;SDS011;54895;40.928;14.480;2022-07-06T11:58:57;11.13;;;2.90;;
63688;SDS011;54895;40.928;14.480;2022-07-06T12:01:26;12.35;;;2.60;;
63688;SDS011;54895;40.928;14.480;2022-07-06T12:07:47;14.93;;;2.60;;
63688;SDS011;54895;40.928;14.480;2022-07-06T12:10:35;11.98;;;2.70;;
63688;SDS011;54895;40.928;14.480;2022-07-06T12:13:04;20.98;;;3.17;;
63688;SDS011;54895;40.928;14.480;2022-07-06T12:15:31;11.65;;;2.20;;
63688;SDS011;54895;40.928;14.480;2022-07-06T12:17:58;8.30;;;2.40;;
63688;SDS011;54895;40.928;14.480;2022-07-06T12:20:25;6.80;;;2.20;;
63688;SDS011;54895;40.928;14.480;2022-07-06T12:23:05;6.28;;;2.30;;
63688;SDS011;54895;40.928;14.480;2022-07-06T12:25:34;11.52;;;2.75;;
63688;SDS011;54895;40.928;14.480;2022-07-06T12:28:03;21.83;;;3.78;;
63688;SDS011;54895;40.928;14.480;2022-07-06T12:30:30;9.93;;;3.38;;
63688;SDS011;54895;40.928;14.480;2022-07-06T12:33:13;12.10;;;2.80;;
63688;SDS011;54895;40.928;14.480;2022-07-06T12:35:46;9.07;;;2.10;;
63688;SDS011;54895;40.928;14.480;2022-07-06T12:38:12;11.88;;;2.38;;
63688;SDS011;54895;40.928;14.480;2022-07-06T12:40:47;14.50;;;2.60;;
63688;SDS011;54895;40.928;14.480;2022-07-06T12:43:33;10.30;;;2.30;;
63688;SDS011;54895;40.928;14.480;2022-07-06T12:46:23;7.38;;;2.33;;
63688;SDS011;54895;40.928;14.480;2022-07-06T12:48:57;7.60;;;2.30;;
63688;SDS011;54895;40.928;14.480;2022-07-06T12:51:24;16.63;;;2.65;;
63688;SDS011;54895;40.928;14.480;2022-07-06T12:53:51;16.33;;;2.72;;
63688;SDS011;54895;40.928;14.480;2022-07-06T12:56:18;14.40;;;2.63;;
63688;SDS011;54895;40.928;14.480;2022-07-06T12:58:55;7.60;;;2.05;;
63688;SDS011;54895;40.928;14.480;2022-07-06T13:01:23;17.08;;;2.38;;
63688;SDS011;54895;40.928;14.480;2022-07-06T13:07:54;8.88;;;1.55;;
63688;SDS011;54895;40.928;14.480;2022-07-06T13:10:22;14.55;;;2.00;;
63688;SDS011;54895;40.928;14.480;2022-07-06T13:12:49;14.38;;;2.28;;
63688;SDS011;54895;40.928;14.480;2022-07-06T13:15:16;12.85;;;2.35;;
63688;SDS011;54895;40.928;14.480;2022-07-06T13:17:43;8.13;;;2.35;;
63688;SDS011;54895;40.928;14.480;2022-07-06T13:20:11;5.18;;;1.85;;
63688;SDS011;54895;40.928;14.480;2022-07-06T13:22:39;10.00;;;2.28;;
63688;SDS011;54895;40.928;14.480;2022-07-06T13:25:06;8.40;;;2.28;;
63688;SDS011;54895;40.928;14.480;2022-07-06T13:27:34;7.68;;;2.10;;
63688;SDS011;54895;40.928;14.480;2022-07-06T13:30:00;6.00;;;2.15;;
63688;SDS011;54895;40.928;14.480;2022-07-06T13:32:28;8.35;;;2.30;;
63688;SDS011;54895;40.928;14.480;2022-07-06T13:34:54;4.00;;;2.03;;
63688;SDS011;54895;40.928;14.480;2022-07-06T13:37:21;6.68;;;2.13;;
63688;SDS011;54895;40.928;14.480;2022-07-06T13:39:48;6.05;;;2.08;;
63688;SDS011;54895;40.928;14.480;2022-07-06T13:42:14;14.18;;;2.28;;
63688;SDS011;54895;40.928;14.480;2022-07-06T13:44:41;12.30;;;2.67;;
63688;SDS011;54895;40.928;14.480;2022-07-06T13:47:08;9.15;;;2.40;;
63688;SDS011;54895;40.928;14.480;2022-07-06T13:49:35;8.57;;;2.33;;
63688;SDS011;54895;40.928;14.480;2022-07-06T13:52:02;6.53;;;1.90;;
63688;SDS011;54895;40.928;14.480;2022-07-06T13:54:30;5.72;;;2.50;;
63688;SDS011;54895;40.928;14.480;2022-07-06T13:56:58;7.13;;;2.20;;
63688;SDS011;54895;40.928;14.480;2022-07-06T13:59:28;8.80;;;2.17;;
63688;SDS011;54895;40.928;14.480;2022-07-06T14:01:55;7.20;;;2.33;;
63688;SDS011;54895;40.928;14.480;2022-07-06T14:04:22;11.07;;;2.28;;
63688;SDS011;54895;40.928;14.480;2022-07-06T14:06:49;5.57;;;2.30;;
63688;SDS011;54895;40.928;14.480;2022-07-06T14:09:16;7.22;;;2.38;;
63688;SDS011;54895;40.928;14.480;2022-07-06T14:11:43;8.25;;;2.65;;
63688;SDS011;54895;40.928;14.480;2022-07-06T14:14:12;11.98;;;2.55;;
63688;SDS011;54895;40.928;14.480;2022-07-06T14:16:39;10.43;;;2.90;;
63688;SDS011;54895;40.928;14.480;2022-07-06T14:19:06;8.73;;;2.17;;
63688;SDS011;54895;40.928;14.480;2022-07-06T14:21:33;7.35;;;2.10;;
63688;SDS011;54895;40.928;14.480;2022-07-06T14:24:00;9.80;;;2.42;;
63688;SDS011;54895;40.928;14.480;2022-07-06T14:26:28;10.73;;;2.50;;
63688;SDS011;54895;40.928;14.480;2022-07-06T14:28:55;7.63;;;2.20;;
63688;SDS011;54895;40.928;14.480;2022-07-06T14:31:22;6.55;;;2.30;;
63688;SDS011;54895;40.928;14.480;2022-07-06T14:33:49;8.55;;;2.40;;
63688;SDS011;54895;40.928;14.480;2022-07-06T14:36:16;6.72;;;2.55;;
63688;SDS011;54895;40.928;14.480;2022-07-06T14:38:43;12.45;;;2.50;;
63688;SDS011;54895;40.928;14.480;2022-07-06T14:41:11;7.28;;;2.10;;
63688;SDS011;54895;40.928;14.480;2022-07-06T14:43:38;6.60;;;2.00;;
63688;SDS011;54895;40.928;14.480;2022-07-06T14:46:05;9.02;;;2.28;;
63688;SDS011;54895;40.928;14.480;2022-07-06T14:48:32;9.88;;;2.50;;
63688;SDS011;54895;40.928;14.480;2022-07-06T14:50:58;9.27;;;2.35;;
63688;SDS011;54895;40.928;14.480;2022-07-06T14:53:25;7.25;;;1.92;;
63688;SDS011;54895;40.928;14.480;2022-07-06T14:55:52;6.63;;;1.98;;
63688;SDS011;54895;40.928;14.480;2022-07-06T14:58:19;13.18;;;2.22;;
63688;SDS011;54895;40.928;14.480;2022-07-06T15:00:46;6.25;;;2.10;;
63688;SDS011;54895;40.928;14.480;2022-07-06T15:03:13;8.00;;;1.90;;
63688;SDS011;54895;40.928;14.480;2022-07-06T15:05:40;8.35;;;2.15;;
63688;SDS011;54895;40.928;14.480;2022-07-06T15:08:12;4.93;;;1.77;;
63688;SDS011;54895;40.928;14.480;2022-07-06T15:10:41;8.73;;;1.83;;
63688;SDS011;54895;40.928;14.480;2022-07-06T15:13:09;9.93;;;1.95;;
63688;SDS011;54895;40.928;14.480;2022-07-06T15:15:36;26.67;;;3.35;;
63688;SDS011;54895;40.928;14.480;2022-07-06T15:18:04;8.75;;;2.05;;